createdAt,value
2023-06-05T00:01:10.906Z,4.50
2023-06-05T00:03:40.194Z,4.40
2023-06-05T00:06:07.685Z,4.90
2023-06-05T00:08:34.543Z,4.88
2023-06-05T00:11:01.609Z,5.57
2023-06-05T00:13:28.617Z,5.63
2023-06-05T00:15:55.812Z,5.38
2023-06-05T00:18:23.128Z,5.93
2023-06-05T00:20:50.023Z,5.45
2023-06-05T00:23:16.844Z,5.60
2023-06-05T00:25:43.695Z,5.40
2023-06-05T00:28:10.651Z,5.90
2023-06-05T00:30:38.237Z,5.30
2023-06-05T00:33:05.939Z,5.43
2023-06-05T00:35:32.980Z,5.97
2023-06-05T00:38:00.114Z,6.38
2023-06-05T00:40:27.195Z,5.88
2023-06-05T00:42:54.140Z,5.90
2023-06-05T00:45:20.984Z,6.18
2023-06-05T00:47:48.235Z,5.82
2023-06-05T00:50:16.641Z,5.82
2023-06-05T00:52:44.183Z,5.57
2023-06-05T00:55:12.659Z,5.68
2023-06-05T00:57:40.352Z,5.53
2023-06-05T01:00:13.813Z,6.22
2023-06-05T01:02:42.042Z,6.03
2023-06-05T01:05:09.591Z,5.78
2023-06-05T01:07:41.316Z,6.45
2023-06-05T01:10:12.019Z,6.97
2023-06-05T01:12:57.799Z,6.65
2023-06-05T01:15:31.496Z,6.53
2023-06-05T01:18:02.371Z,5.93
2023-06-05T01:20:40.328Z,6.33
2023-06-05T01:23:10.634Z,6.68
2023-06-05T01:25:38.148Z,6.65
2023-06-05T01:28:19.013Z,6.30
2023-06-05T01:31:17.012Z,6.47
2023-06-05T01:33:50.946Z,6.97
2023-06-05T01:36:19.058Z,6.63
2023-06-05T01:38:49.403Z,6.40
2023-06-05T01:41:17.178Z,6.38
2023-06-05T01:43:46.455Z,6.60
2023-06-05T01:46:15.192Z,6.85
2023-06-05T01:48:44.019Z,6.80
2023-06-05T01:51:11.008Z,7.28
2023-06-05T01:53:38.042Z,6.63
2023-06-05T01:56:05.474Z,7.20
2023-06-05T01:58:32.285Z,6.60
2023-06-05T02:00:59.258Z,6.72
2023-06-05T02:03:26.976Z,6.80
2023-06-05T02:05:54.158Z,7.22
2023-06-05T02:08:23.965Z,7.05
2023-06-05T02:10:51.383Z,7.15
2023-06-05T02:13:20.243Z,6.93
2023-06-05T02:15:47.545Z,6.85
2023-06-05T02:18:14.491Z,7.22
2023-06-05T02:20:42.658Z,6.57
2023-06-05T02:23:09.618Z,7.20
2023-06-05T02:25:36.487Z,7.38
2023-06-05T02:28:03.359Z,6.63
2023-06-05T02:30:30.360Z,7.10
2023-06-05T02:33:02.115Z,8.10
2023-06-05T02:35:30.650Z,7.55
2023-06-05T02:37:58.675Z,7.63
2023-06-05T02:40:26.068Z,7.38
2023-06-05T02:42:53.003Z,7.18
2023-06-05T02:45:19.839Z,7.40
2023-06-05T02:47:47.195Z,7.75
2023-06-05T02:50:14.122Z,7.25
2023-06-05T02:52:41.531Z,8.00
2023-06-05T02:55:09.019Z,7.78
2023-06-05T02:57:42.373Z,8.20
2023-06-05T03:00:15.703Z,8.93
2023-06-05T03:02:42.770Z,8.38
2023-06-05T03:05:10.290Z,7.47
2023-06-05T03:07:37.446Z,8.23
2023-06-05T03:10:04.883Z,7.65
2023-06-05T03:12:31.711Z,8.82
2023-06-05T03:14:58.544Z,8.38
2023-06-05T03:17:25.743Z,8.13
2023-06-05T03:19:52.573Z,8.40
2023-06-05T03:22:19.470Z,8.48
2023-06-05T03:24:46.967Z,8.70
2023-06-05T03:27:14.029Z,8.43
2023-06-05T03:29:40.928Z,8.27
2023-06-05T03:32:07.778Z,8.45
2023-06-05T03:34:37.625Z,8.35
2023-06-05T03:37:04.994Z,8.02
2023-06-05T03:39:32.301Z,8.68
2023-06-05T03:41:59.151Z,8.05
2023-06-05T03:44:26.060Z,8.88
2023-06-05T03:46:53.149Z,9.27
2023-06-05T03:49:21.676Z,9.63
2023-06-05T03:51:49.341Z,9.95
2023-06-05T03:54:17.857Z,9.70
2023-06-05T03:56:50.720Z,9.00
2023-06-05T03:59:20.597Z,9.43
2023-06-05T04:01:47.700Z,9.07
2023-06-05T04:04:14.911Z,9.13
2023-06-05T04:06:41.962Z,10.00
2023-06-05T04:09:13.383Z,10.13
2023-06-05T04:11:44.562Z,10.20
2023-06-05T04:14:12.019Z,10.10
2023-06-05T04:16:40.604Z,8.85
2023-06-05T04:19:08.008Z,12.02
2023-06-05T04:21:37.347Z,14.48
2023-06-05T04:24:08.197Z,9.90
2023-06-05T04:26:35.788Z,9.63
2023-06-05T04:29:03.704Z,9.15
2023-06-05T04:31:32.020Z,9.57
2023-06-05T04:33:59.960Z,9.77
2023-06-05T04:36:29.491Z,9.73
2023-06-05T04:38:57.366Z,10.30
2023-06-05T04:41:24.225Z,10.02
2023-06-05T04:43:51.951Z,10.27
2023-06-05T04:46:18.917Z,9.60
2023-06-05T04:48:46.546Z,9.93
2023-06-05T04:51:13.603Z,10.32
2023-06-05T04:53:42.860Z,9.95
2023-06-05T04:56:10.383Z,9.40
2023-06-05T04:58:37.695Z,8.70
2023-06-05T05:01:06.515Z,9.15
2023-06-05T05:03:33.654Z,9.25
2023-06-05T05:06:01.518Z,10.05
2023-06-05T05:08:28.900Z,8.95
2023-06-05T05:10:56.044Z,9.60
2023-06-05T05:13:23.266Z,9.10
2023-06-05T05:15:54.012Z,9.80
2023-06-05T05:18:21.330Z,9.70
2023-06-05T05:20:48.266Z,9.82
2023-06-05T05:23:18.433Z,9.52
2023-06-05T05:25:46.057Z,9.43
2023-06-05T05:28:13.116Z,9.48
2023-06-05T05:30:40.155Z,9.13
2023-06-05T05:33:07.016Z,9.60
2023-06-05T05:35:33.954Z,9.68
2023-06-05T05:38:00.830Z,8.77
2023-06-05T05:40:28.072Z,8.82
2023-06-05T05:42:54.932Z,8.65
2023-06-05T05:45:21.768Z,8.27
2023-06-05T05:47:48.693Z,7.78
2023-06-05T05:50:15.683Z,8.52
2023-06-05T05:52:44.314Z,7.88
2023-06-05T05:55:12.073Z,8.20
2023-06-05T05:57:40.148Z,7.68
2023-06-05T06:00:13.789Z,7.75
2023-06-05T06:02:40.976Z,8.00
2023-06-05T06:05:08.253Z,7.80
2023-06-05T06:07:36.816Z,8.07
2023-06-05T06:10:04.390Z,8.00
2023-06-05T06:12:31.252Z,7.97
2023-06-05T06:14:58.026Z,8.30
2023-06-05T06:17:25.496Z,8.68
2023-06-05T06:19:52.606Z,9.15
2023-06-05T06:22:19.578Z,8.68
2023-06-05T06:24:47.499Z,8.95
2023-06-05T06:29:53.485Z,9.93
2023-06-05T06:32:21.136Z,9.18
2023-06-05T06:34:48.085Z,8.80
2023-06-05T06:37:21.302Z,9.10
2023-06-05T06:39:48.181Z,9.23
2023-06-05T06:42:15.593Z,9.07
2023-06-05T06:44:42.987Z,9.23
2023-06-05T06:47:13.348Z,8.27
2023-06-05T06:49:42.057Z,9.45
2023-06-05T06:52:11.524Z,9.90
2023-06-05T06:54:39.055Z,8.85
2023-06-05T06:57:09.364Z,8.90
2023-06-05T06:59:38.879Z,10.07
2023-06-05T07:02:14.628Z,9.90
2023-06-05T07:04:42.831Z,9.55
2023-06-05T07:07:11.639Z,9.77
2023-06-05T07:09:38.972Z,9.65
2023-06-05T07:12:07.132Z,9.82
2023-06-05T07:14:37.189Z,10.48
2023-06-05T07:17:04.430Z,9.93
2023-06-05T07:19:32.539Z,9.80
2023-06-05T07:22:01.506Z,9.30
2023-06-05T07:24:30.306Z,9.18
2023-06-05T07:26:58.980Z,9.27
2023-06-05T07:29:26.398Z,9.45
2023-06-05T07:31:55.440Z,8.45
2023-06-05T07:34:24.092Z,9.05
2023-06-05T07:36:52.677Z,8.45
2023-06-05T07:39:21.287Z,8.50
2023-06-05T07:41:48.364Z,8.43
2023-06-05T07:44:20.451Z,8.50
2023-06-05T07:46:49.312Z,8.60
2023-06-05T07:49:19.666Z,10.35
2023-06-05T07:51:51.640Z,9.70
2023-06-05T07:54:20.119Z,10.73
2023-06-05T07:56:50.385Z,9.98
2023-06-05T07:59:18.695Z,11.07
2023-06-05T08:01:46.614Z,10.00
2023-06-05T08:04:14.162Z,10.55
2023-06-05T08:06:41.525Z,9.90
2023-06-05T08:09:12.438Z,10.40
2023-06-05T08:11:40.170Z,10.60
2023-06-05T08:14:07.442Z,11.23
2023-06-05T08:16:52.833Z,10.63
2023-06-05T08:19:19.801Z,10.52
2023-06-05T08:21:46.660Z,10.43
2023-06-05T08:24:13.530Z,11.18
2023-06-05T08:26:40.392Z,9.82
2023-06-05T08:29:07.530Z,11.38
2023-06-05T08:31:35.860Z,10.90
2023-06-05T08:34:03.014Z,11.80
2023-06-05T08:36:29.986Z,11.15
2023-06-05T08:38:56.858Z,11.55
2023-06-05T08:41:25.041Z,11.82
2023-06-05T08:43:52.840Z,11.35
2023-06-05T08:46:19.743Z,11.38
2023-06-05T08:48:48.726Z,11.63
2023-06-05T08:51:17.959Z,12.45
2023-06-05T08:53:55.694Z,13.43
2023-06-05T08:56:22.673Z,13.18
2023-06-05T08:58:50.819Z,13.20
2023-06-05T09:01:17.810Z,13.70
2023-06-05T09:03:45.760Z,13.93
2023-06-05T09:06:12.704Z,12.60
2023-06-05T09:08:39.601Z,13.00
2023-06-05T09:11:28.344Z,13.20
2023-06-05T09:14:03.160Z,10.80
2023-06-05T09:16:43.771Z,11.85
2023-06-05T09:19:12.595Z,11.95
2023-06-05T09:21:43.467Z,11.65
2023-06-05T09:24:19.103Z,12.07
2023-06-05T09:26:48.866Z,10.23
2023-06-05T09:29:24.465Z,10.00
2023-06-05T09:31:53.316Z,9.73
2023-06-05T09:34:25.292Z,10.55
2023-06-05T09:36:52.931Z,12.38
2023-06-05T09:39:20.998Z,13.63
2023-06-05T09:41:50.317Z,11.77
2023-06-05T09:44:17.267Z,10.90
2023-06-05T09:47:05.331Z,10.93
2023-06-05T09:49:41.694Z,14.65
2023-06-05T09:52:14.660Z,12.18
2023-06-05T09:54:47.012Z,10.88
2023-06-05T09:57:15.559Z,11.60
2023-06-05T09:59:55.346Z,10.85
2023-06-05T10:02:36.988Z,10.15
2023-06-05T10:05:08.233Z,9.65
2023-06-05T10:07:37.838Z,8.23
2023-06-05T10:10:05.309Z,9.57
2023-06-05T10:12:32.413Z,8.85
2023-06-05T10:15:00.154Z,9.60
2023-06-05T10:17:27.823Z,9.55
2023-06-05T10:19:55.329Z,8.10
2023-06-05T10:22:24.823Z,7.78
2023-06-05T10:24:59.894Z,8.60
2023-06-05T10:27:45.306Z,9.18
2023-06-05T10:30:21.159Z,9.18
2023-06-05T10:33:06.398Z,8.57
2023-06-05T10:36:03.025Z,8.82
2023-06-05T10:38:31.969Z,8.35
2023-06-05T10:41:00.902Z,9.43
2023-06-05T10:43:28.858Z,9.18
2023-06-05T10:46:10.893Z,9.05
2023-06-05T10:49:10.968Z,9.25
2023-06-05T10:51:43.482Z,8.77
2023-06-05T10:54:12.740Z,8.55
2023-06-05T10:57:07.002Z,8.95
2023-06-05T10:59:35.476Z,9.52
2023-06-05T11:02:17.718Z,8.50
2023-06-05T11:04:48.502Z,9.68
2023-06-05T11:07:22.844Z,9.38
2023-06-05T11:10:08.349Z,8.98
2023-06-05T11:12:41.523Z,8.27
2023-06-05T11:15:13.371Z,8.38
2023-06-05T11:17:42.434Z,7.70
2023-06-05T11:20:24.497Z,7.95
2023-06-05T11:22:54.574Z,8.30
2023-06-05T11:25:34.424Z,8.05
2023-06-05T11:28:06.785Z,8.40
2023-06-05T11:33:16.886Z,8.75
2023-06-05T11:35:49.768Z,8.95
2023-06-05T11:38:25.149Z,9.40
2023-06-05T11:40:53.578Z,8.90
2023-06-05T11:43:21.670Z,8.80
2023-06-05T11:45:56.437Z,8.73
2023-06-05T11:48:26.319Z,7.88
2023-06-05T11:50:56.727Z,8.52
2023-06-05T11:53:23.744Z,9.35
2023-06-05T11:55:50.689Z,8.52
2023-06-05T11:58:28.983Z,8.07
2023-06-05T12:01:15.683Z,8.43
2023-06-05T12:03:43.290Z,8.20
2023-06-05T12:06:11.070Z,8.45
2023-06-05T12:08:38.654Z,8.82
2023-06-05T12:11:20.014Z,8.85
2023-06-05T12:13:48.272Z,9.15
2023-06-05T12:16:16.341Z,9.52
2023-06-05T12:18:44.568Z,8.65
2023-06-05T12:21:22.157Z,8.77
2023-06-05T12:23:50.071Z,9.77
2023-06-05T12:26:18.164Z,9.45
2023-06-05T12:28:46.289Z,9.68
2023-06-05T12:31:36.304Z,9.65
2023-06-05T12:34:05.566Z,10.43
2023-06-05T12:36:39.265Z,10.68
2023-06-05T12:39:07.126Z,10.77
2023-06-05T12:41:37.344Z,10.85
2023-06-05T12:44:09.180Z,11.80
2023-06-05T12:46:36.959Z,11.05
2023-06-05T12:49:06.352Z,11.18
2023-06-05T12:51:33.629Z,12.15
2023-06-05T12:54:00.942Z,12.07
2023-06-05T12:56:29.595Z,12.68
2023-06-05T12:58:58.272Z,12.25
2023-06-05T13:01:29.928Z,12.45
2023-06-05T13:03:57.613Z,12.80
2023-06-05T13:06:24.485Z,11.60
2023-06-05T13:08:52.936Z,12.00
2023-06-05T13:11:20.034Z,11.70
2023-06-05T13:13:46.859Z,11.95
2023-06-05T13:16:13.895Z,11.75
2023-06-05T13:18:40.848Z,12.07
2023-06-05T13:21:07.749Z,12.15
2023-06-05T13:23:34.907Z,12.32
2023-06-05T13:26:04.105Z,12.38
2023-06-05T13:28:31.372Z,12.98
2023-06-05T13:30:58.452Z,13.57
2023-06-05T13:33:26.097Z,13.35
2023-06-05T13:35:54.578Z,14.02
2023-06-05T13:38:22.372Z,13.40
2023-06-05T13:40:51.802Z,13.00
2023-06-05T13:43:19.013Z,13.25
2023-06-05T13:45:46.244Z,11.65
2023-06-05T13:48:13.191Z,11.45
2023-06-05T13:50:40.101Z,11.07
2023-06-05T13:53:06.956Z,11.23
2023-06-05T13:55:33.998Z,11.77
2023-06-05T13:58:02.603Z,11.35
2023-06-05T14:00:30.874Z,11.85
2023-06-05T14:02:59.439Z,12.35
2023-06-05T14:05:26.915Z,13.23
2023-06-05T14:07:54.453Z,12.80
2023-06-05T14:10:23.487Z,13.15
2023-06-05T14:12:51.733Z,12.88
2023-06-05T14:15:19.809Z,12.65
2023-06-05T14:17:49.897Z,13.10
2023-06-05T14:20:16.961Z,12.80
2023-06-05T14:22:44.094Z,12.40
2023-06-05T14:25:13.585Z,13.52
2023-06-05T14:27:40.520Z,11.85
2023-06-05T14:30:09.831Z,13.07
2023-06-05T14:32:37.501Z,12.57
2023-06-05T14:35:04.879Z,14.15
2023-06-05T14:37:31.966Z,13.43
2023-06-05T14:39:58.760Z,11.88
2023-06-05T14:42:25.738Z,11.98
2023-06-05T14:44:52.698Z,11.73
2023-06-05T14:47:19.546Z,12.90
2023-06-05T14:49:46.436Z,11.30
2023-06-05T14:52:13.273Z,12.25
2023-06-05T14:54:43.123Z,12.63
2023-06-05T14:57:14.122Z,12.25
2023-06-05T14:59:41.840Z,12.93
2023-06-05T15:02:09.013Z,11.55
2023-06-05T15:04:36.963Z,12.77
2023-06-05T15:07:09.051Z,12.23
2023-06-05T15:09:35.947Z,11.75
2023-06-05T15:12:03.838Z,12.50
2023-06-05T15:14:30.773Z,12.40
2023-06-05T15:16:57.633Z,12.82
2023-06-05T15:19:24.459Z,12.48
2023-06-05T15:21:51.331Z,12.65
2023-06-05T15:24:18.197Z,12.82
2023-06-05T15:26:44.997Z,12.20
2023-06-05T15:29:11.772Z,12.68
2023-06-05T15:31:38.605Z,13.35
2023-06-05T15:34:05.548Z,13.43
2023-06-05T15:36:32.361Z,12.15
2023-06-05T15:38:59.637Z,12.85
2023-06-05T15:41:27.686Z,13.52
2023-06-05T15:43:54.604Z,12.30
2023-06-05T15:46:22.904Z,12.27
2023-06-05T15:48:50.360Z,12.48
2023-06-05T15:51:17.393Z,13.45
2023-06-05T15:53:55.194Z,12.65
2023-06-05T15:56:27.934Z,12.50
2023-06-05T15:58:54.789Z,13.50
2023-06-05T16:01:21.670Z,13.73
2023-06-05T16:03:48.574Z,13.73
2023-06-05T16:06:15.758Z,12.77
2023-06-05T16:08:42.709Z,12.85
2023-06-05T16:11:10.246Z,12.60
2023-06-05T16:13:40.863Z,13.32
2023-06-05T16:16:07.840Z,13.00
2023-06-05T16:18:35.751Z,12.57
2023-06-05T16:21:02.637Z,12.27
2023-06-05T16:23:29.645Z,11.60
2023-06-05T16:25:56.836Z,11.43
2023-06-05T16:28:23.678Z,12.18
2023-06-05T16:30:50.572Z,12.63
2023-06-05T16:33:17.408Z,12.82
2023-06-05T16:35:44.444Z,12.55
2023-06-05T16:38:11.332Z,12.45
2023-06-05T16:40:40.256Z,12.60
2023-06-05T16:43:07.731Z,12.73
2023-06-05T16:45:37.677Z,12.73
2023-06-05T16:48:05.122Z,12.57
2023-06-05T16:50:32.128Z,12.50
2023-06-05T16:52:58.990Z,14.00
2023-06-05T16:55:25.975Z,12.73
2023-06-05T16:57:52.771Z,13.23
2023-06-05T17:00:20.023Z,12.63
2023-06-05T17:02:47.068Z,11.80
2023-06-05T17:05:14.389Z,11.88
2023-06-05T17:07:41.592Z,12.10
2023-06-05T17:10:08.913Z,10.48
2023-06-05T17:12:35.875Z,12.52
2023-06-05T17:15:02.698Z,11.32
2023-06-05T17:17:29.850Z,11.90
2023-06-05T17:19:56.716Z,11.25
2023-06-05T17:22:28.178Z,11.50
2023-06-05T17:24:55.090Z,11.35
2023-06-05T17:27:21.876Z,11.00
2023-06-05T17:29:48.804Z,10.98
2023-06-05T17:32:15.741Z,10.43
2023-06-05T17:34:43.340Z,11.05
2023-06-05T17:37:10.208Z,10.65
2023-06-05T17:39:37.098Z,11.20
2023-06-05T17:42:04.551Z,11.73
2023-06-05T17:44:32.806Z,12.82
2023-06-05T17:47:00.117Z,11.70
2023-06-05T17:49:29.162Z,12.20
2023-06-05T17:51:56.149Z,11.77
2023-06-05T17:54:26.160Z,11.70
2023-06-05T17:56:54.992Z,11.60
2023-06-05T17:59:21.990Z,11.52
2023-06-05T18:01:49.187Z,11.60
2023-06-05T18:04:17.465Z,11.45
2023-06-05T18:06:44.511Z,12.15
2023-06-05T18:09:11.352Z,11.90
2023-06-05T18:11:38.247Z,10.57
2023-06-05T18:14:05.463Z,11.13
2023-06-05T18:16:32.623Z,11.68
2023-06-05T18:18:59.561Z,11.18
2023-06-05T18:21:26.460Z,11.60
2023-06-05T18:23:53.326Z,11.45
2023-06-05T18:26:21.470Z,11.43
2023-06-05T18:28:48.583Z,12.13
2023-06-05T18:31:17.107Z,11.52
2023-06-05T18:33:44.378Z,11.98
2023-06-05T18:36:15.272Z,12.32
2023-06-05T18:38:42.111Z,12.20
2023-06-05T18:41:09.083Z,12.43
2023-06-05T18:43:37.421Z,12.88
2023-06-05T18:46:04.694Z,13.35
2023-06-05T18:48:32.368Z,11.95
2023-06-05T18:51:04.445Z,12.95
2023-06-05T18:53:32.559Z,13.00
2023-06-05T18:55:59.840Z,12.90
2023-06-05T18:58:26.728Z,14.98
2023-06-05T19:00:59.685Z,14.10
2023-06-05T19:03:26.609Z,13.85
2023-06-05T19:05:53.620Z,14.40
2023-06-05T19:08:20.597Z,14.43
2023-06-05T19:10:47.420Z,14.38
2023-06-05T19:13:14.303Z,15.07
2023-06-05T19:15:41.818Z,14.43
2023-06-05T19:18:08.792Z,14.45
2023-06-05T19:20:35.825Z,14.40
2023-06-05T19:23:02.674Z,14.80
2023-06-05T19:25:29.558Z,14.50
2023-06-05T19:27:56.627Z,14.23
2023-06-05T19:30:23.666Z,13.82
2023-06-05T19:32:51.145Z,14.40
2023-06-05T19:35:19.375Z,14.82
2023-06-05T19:37:49.478Z,14.48
2023-06-05T19:40:16.458Z,14.90
2023-06-05T19:42:44.250Z,14.70
2023-06-05T19:45:12.518Z,14.82
2023-06-05T19:47:39.951Z,15.63
2023-06-05T19:50:07.977Z,15.77
2023-06-05T19:52:35.385Z,15.45
2023-06-05T19:55:02.461Z,15.75
2023-06-05T19:57:29.356Z,15.20
2023-06-05T19:59:56.383Z,15.20
2023-06-05T20:02:26.358Z,17.42
2023-06-05T20:04:53.211Z,16.48
2023-06-05T20:07:20.102Z,16.98
2023-06-05T20:09:46.954Z,15.32
2023-06-05T20:12:13.804Z,15.68
2023-06-05T20:14:40.911Z,14.63
2023-06-05T20:17:08.579Z,15.32
2023-06-05T20:19:37.300Z,14.82
2023-06-05T20:22:06.558Z,15.38
2023-06-05T20:24:33.439Z,15.18
2023-06-05T20:27:00.516Z,16.08
2023-06-05T20:29:27.351Z,15.88
2023-06-05T20:31:54.343Z,15.48
2023-06-05T20:34:21.903Z,15.15
2023-06-05T20:36:48.824Z,14.93
2023-06-05T20:39:18.932Z,14.95
2023-06-05T20:41:53.399Z,13.80
2023-06-05T20:44:21.905Z,14.90
2023-06-05T20:46:53.787Z,13.73
2023-06-05T20:49:24.206Z,13.88
2023-06-05T20:51:52.026Z,12.57
2023-06-05T20:54:19.210Z,13.02
2023-06-05T20:56:46.715Z,12.90
2023-06-05T20:59:14.585Z,12.57
2023-06-05T21:01:42.146Z,12.85
2023-06-05T21:04:09.168Z,12.63
2023-06-05T21:06:37.863Z,12.60
2023-06-05T21:09:04.746Z,13.27
2023-06-05T21:11:31.769Z,12.50
2023-06-05T21:13:58.652Z,13.40
2023-06-05T21:16:25.650Z,13.45
2023-06-05T21:18:53.076Z,14.55
2023-06-05T21:21:20.090Z,13.75
2023-06-05T21:23:46.975Z,13.93
2023-06-05T21:26:14.118Z,13.32
2023-06-05T21:28:40.961Z,13.93
2023-06-05T21:31:08.162Z,12.40
2023-06-05T21:33:35.891Z,13.05
2023-06-05T21:36:02.851Z,11.93
2023-06-05T21:38:30.066Z,11.88
2023-06-05T21:40:56.984Z,12.00
2023-06-05T21:43:23.980Z,12.77
2023-06-05T21:45:51.237Z,11.13
2023-06-05T21:48:18.159Z,11.18
2023-06-05T21:50:45.048Z,11.50
2023-06-05T21:53:11.959Z,11.40
2023-06-05T21:55:38.835Z,11.02
2023-06-05T21:58:05.755Z,11.10
2023-06-05T22:00:32.575Z,10.65
2023-06-05T22:02:59.465Z,11.13
2023-06-05T22:05:26.347Z,11.02
2023-06-05T22:07:53.232Z,10.07
2023-06-05T22:10:20.084Z,10.48
2023-06-05T22:12:47.734Z,10.75
2023-06-05T22:15:16.516Z,11.07
2023-06-05T22:17:47.182Z,11.48
2023-06-05T22:20:15.199Z,10.70
2023-06-05T22:22:42.042Z,10.50
2023-06-05T22:25:09.324Z,10.60
2023-06-05T22:27:36.516Z,9.93
2023-06-05T22:30:03.568Z,10.55
2023-06-05T22:32:30.416Z,10.80
2023-06-05T22:34:57.513Z,10.38
2023-06-05T22:37:26.421Z,10.02
2023-06-05T22:39:53.995Z,9.85
2023-06-05T22:42:21.443Z,10.63
2023-06-05T22:44:48.389Z,9.90
2023-06-05T22:47:15.719Z,9.95
2023-06-05T22:49:42.604Z,11.32
2023-06-05T22:52:10.354Z,9.55
2023-06-05T22:54:37.510Z,10.68
2023-06-05T22:57:05.981Z,10.05
2023-06-05T22:59:32.971Z,9.65
2023-06-05T23:01:59.813Z,10.40
2023-06-05T23:04:27.070Z,9.32
2023-06-05T23:06:54.212Z,8.90
2023-06-05T23:09:21.094Z,9.40
2023-06-05T23:11:47.940Z,8.93
2023-06-05T23:14:16.343Z,8.57
2023-06-05T23:16:43.173Z,8.63
2023-06-05T23:19:11.751Z,8.48
2023-06-05T23:21:38.555Z,8.20
2023-06-05T23:24:05.813Z,8.27
2023-06-05T23:26:32.878Z,7.95
2023-06-05T23:28:59.716Z,8.27
2023-06-05T23:31:26.596Z,8.13
2023-06-05T23:33:53.464Z,7.63
2023-06-05T23:36:20.324Z,7.78
2023-06-05T23:38:47.284Z,7.63
2023-06-05T23:41:14.116Z,7.22
2023-06-05T23:43:41.258Z,8.27
2023-06-05T23:46:08.638Z,7.18
2023-06-05T23:48:35.578Z,7.68
2023-06-05T23:51:02.512Z,7.88
2023-06-05T23:53:29.300Z,6.93
2023-06-05T23:55:56.141Z,7.28
2023-06-05T23:58:22.973Z,7.30
